Time;durP1;ratioP1;P1;durP2;ratioP2;P2;SDS_P1;SDS_P2;PMS_P1;PMS_P2;Temp;Humidity;BMP_temperature;BMP_pressure;BME280_temperature;BME280_humidity;BME280_pressure;Samples;Min_cycle;Max_cycle;Signal;HPM_P1;HPM_P2
2021/11/19 00:00:42;;;;;;;;;;;18.60;74.60;;;;;;5078722;28;19924;-59
2021/11/19 00:03:10;;;;;;;;;;;18.60;74.60;;;;;;5097043;28;20040;-53
2021/11/19 00:05:38;;;;;;;;;;;18.60;74.60;;;;;;5079042;28;19924;-59
2021/11/19 00:08:05;;;;;;;;;;;18.60;74.60;;;;;;5096116;28;19924;-58
2021/11/19 00:10:32;;;;;;;;;;;18.60;74.70;;;;;;5096557;28;19924;-59
2021/11/19 00:12:59;;;;;;;;;;;18.60;74.60;;;;;;5096854;28;20286;-58
2021/11/19 00:15:27;;;;;;;;;;;18.60;74.60;;;;;;5096743;28;19974;-59
2021/11/19 00:17:54;;;;;;;;;;;18.60;74.60;;;;;;5096739;28;19975;-59
2021/11/19 00:20:28;;;;;;;;;;;18.60;74.60;;;;;;5096295;28;19924;-60
2021/11/19 00:22:56;;;;;;;;;;;18.60;74.60;;;;;;5095588;28;20283;-59
2021/11/19 00:25:24;;;;;;;;;;;18.60;74.60;;;;;;5096584;28;19947;-60
2021/11/19 00:27:51;;;;;;;;;;;18.60;74.60;;;;;;5096095;28;19924;-59
2021/11/19 00:30:19;;;;;;;;;;;18.60;74.60;;;;;;5096200;28;19928;-58
2021/11/19 00:32:47;;;;;;;;;;;18.60;74.50;;;;;;5096111;28;19928;-59
2021/11/19 00:35:14;;;;;;;;;;;18.60;74.50;;;;;;5078485;28;19924;-55
2021/11/19 00:37:43;;;;;;;;;;;18.60;74.60;;;;;;5094970;28;19970;-58
2021/11/19 00:40:15;;;;;;;;;;;18.60;74.50;;;;;;5096226;28;19946;-60
2021/11/19 00:42:42;;;;;;;;;;;18.60;74.50;;;;;;5096292;28;19928;-56
2021/11/19 00:45:08;;;;;;;;;;;18.60;74.50;;;;;;5095880;28;19924;-55
2021/11/19 00:47:35;;;;;;;;;;;18.60;74.50;;;;;;5095841;28;20441;-60
2021/11/19 00:50:05;;;;;;;;;;;18.60;74.50;;;;;;5096100;28;19931;-60
2021/11/19 00:52:31;;;;;;;;;;;18.60;74.50;;;;;;5094802;28;19977;-60
2021/11/19 00:54:59;;;;;;;;;;;18.60;74.50;;;;;;5095614;28;19928;-59
2021/11/19 00:57:26;;;;;;;;;;;18.60;74.50;;;;;;5095434;28;19925;-58
2021/11/19 00:59:53;;;;;;;;;;;18.60;74.50;;;;;;5095812;28;19924;-58
2021/11/19 01:02:21;;;;;;;;;;;18.60;74.50;;;;;;5096388;28;19927;-57
2021/11/19 01:04:49;;;;;;;;;;;18.60;74.50;;;;;;5095796;28;19924;-55
2021/11/19 01:07:17;;;;;;;;;;;18.60;74.50;;;;;;5094753;28;19932;-60
2021/11/19 01:09:49;;;;;;;;;;;18.60;74.40;;;;;;5060901;28;20448;-56
2021/11/19 01:12:18;;;;;;;;;;;18.60;74.50;;;;;;5095333;28;19928;-59
2021/11/19 01:14:45;;;;;;;;;;;18.60;74.50;;;;;;5095616;28;20035;-60
2021/11/19 01:17:21;;;;;;;;;;;18.60;74.50;;;;;;5095237;28;19924;-57
2021/11/19 01:20:08;;;;;;;;;;;18.60;74.50;;;;;;5095153;28;19924;-58
2021/11/19 01:22:36;;;;;;;;;;;18.60;74.50;;;;;;5094227;28;19924;-60
2021/11/19 01:25:06;;;;;;;;;;;18.60;74.50;;;;;;5095639;28;19955;-58
2021/11/19 01:27:33;;;;;;;;;;;18.60;74.50;;;;;;5094944;28;20349;-57
2021/11/19 01:30:00;;;;;;;;;;;18.60;74.40;;;;;;5095330;28;19928;-60
2021/11/19 01:32:27;;;;;;;;;;;18.60;74.50;;;;;;5095274;28;19924;-60
2021/11/19 01:34:55;;;;;;;;;;;18.60;74.50;;;;;;5095243;28;20291;-60
2021/11/19 01:37:22;;;;;;;;;;;18.60;74.40;;;;;;5075941;28;19978;-60
2021/11/19 01:39:49;;;;;;;;;;;18.60;74.50;;;;;;5094743;28;19924;-54
2021/11/19 01:42:21;;;;;;;;;;;18.60;74.40;;;;;;5095091;28;20353;-60
2021/11/19 01:45:00;;;;;;;;;;;18.60;74.40;;;;;;5095654;28;19986;-53
2021/11/19 01:47:28;;;;;;;;;;;18.60;74.40;;;;;;5094990;28;19943;-59
2021/11/19 01:49:55;;;;;;;;;;;18.60;74.50;;;;;;5094213;28;19924;-58
2021/11/19 01:52:32;;;;;;;;;;;18.60;74.40;;;;;;5094205;28;19924;-60
2021/11/19 01:55:12;;;;;;;;;;;18.60;74.40;;;;;;5094605;28;19924;-58
2021/11/19 01:57:42;;;;;;;;;;;18.60;74.40;;;;;;5093588;28;19924;-60
2021/11/19 02:00:15;;;;;;;;;;;18.60;74.40;;;;;;5093986;28;20295;-58
2021/11/19 02:02:43;;;;;;;;;;;18.60;74.40;;;;;;5093845;28;19924;-60
2021/11/19 02:05:10;;;;;;;;;;;18.60;74.40;;;;;;5093936;28;19930;-59
2021/11/19 02:07:44;;;;;;;;;;;18.60;74.40;;;;;;5092515;28;19991;-60
2021/11/19 02:10:14;;;;;;;;;;;18.60;74.40;;;;;;5093586;28;19975;-60
2021/11/19 02:12:41;;;;;;;;;;;18.60;74.40;;;;;;5093798;28;20276;-60
2021/11/19 02:15:14;;;;;;;;;;;18.60;74.40;;;;;;5093753;28;19928;-60
2021/11/19 02:17:42;;;;;;;;;;;18.60;74.40;;;;;;5093427;28;19924;-56
2021/11/19 02:20:12;;;;;;;;;;;18.60;74.30;;;;;;5093638;28;19924;-56
2021/11/19 02:22:45;;;;;;;;;;;18.60;74.30;;;;;;5092402;28;19924;-60
2021/11/19 02:25:18;;;;;;;;;;;18.60;74.40;;;;;;5093387;28;20387;-59
2021/11/19 02:27:45;;;;;;;;;;;18.60;74.30;;;;;;5093542;28;19924;-60
2021/11/19 02:30:17;;;;;;;;;;;18.60;74.40;;;;;;5093245;28;19974;-56
2021/11/19 02:32:49;;;;;;;;;;;18.60;74.30;;;;;;5093267;28;20367;-57
2021/11/19 02:35:18;;;;;;;;;;;18.60;74.30;;;;;;5093550;28;19975;-60
2021/11/19 02:37:48;;;;;;;;;;;18.60;74.30;;;;;;5092540;28;19993;-59
2021/11/19 02:40:17;;;;;;;;;;;18.60;74.40;;;;;;5093283;28;20033;-60
2021/11/19 02:42:47;;;;;;;;;;;18.60;74.30;;;;;;5093412;28;20337;-60
2021/11/19 02:45:25;;;;;;;;;;;18.60;74.30;;;;;;5093627;28;19924;-59
2021/11/19 02:47:52;;;;;;;;;;;18.60;74.30;;;;;;5093048;28;19978;-54
2021/11/19 02:50:20;;;;;;;;;;;18.60;74.30;;;;;;5093010;28;19928;-55
2021/11/19 02:52:48;;;;;;;;;;;18.60;74.30;;;;;;5074782;28;19932;-59
2021/11/19 02:55:18;;;;;;;;;;;18.60;74.30;;;;;;5092690;28;20257;-59
2021/11/19 02:57:45;;;;;;;;;;;18.60;74.30;;;;;;5023710;28;1964169;-59
2021/11/19 03:00:16;;;;;;;;;;;18.60;74.30;;;;;;5093956;28;20284;-60
2021/11/19 03:02:43;;;;;;;;;;;18.60;74.30;;;;;;5097835;28;19924;-58
2021/11/19 03:05:12;;;;;;;;;;;18.60;74.30;;;;;;5097811;28;19974;-57
2021/11/19 03:07:39;;;;;;;;;;;18.60;74.30;;;;;;5097792;28;19924;-59
2021/11/19 03:10:10;;;;;;;;;;;18.60;74.30;;;;;;5096777;28;19924;-60
2021/11/19 03:12:37;;;;;;;;;;;18.60;74.30;;;;;;5098040;28;19924;-58
2021/11/19 03:15:14;;;;;;;;;;;18.60;74.20;;;;;;5097656;28;19970;-60
2021/11/19 03:17:41;;;;;;;;;;;18.60;74.30;;;;;;5097630;28;19924;-59
2021/11/19 03:20:09;;;;;;;;;;;18.60;74.20;;;;;;5097457;28;20023;-59
2021/11/19 03:22:36;;;;;;;;;;;18.60;74.20;;;;;;5097352;28;20383;-57
2021/11/19 03:25:05;;;;;;;;;;;18.60;74.20;;;;;;5096481;28;19924;-58
2021/11/19 03:27:32;;;;;;;;;;;18.60;74.20;;;;;;5097722;28;19928;-60
2021/11/19 03:29:59;;;;;;;;;;;18.60;74.30;;;;;;5097656;28;19970;-58
2021/11/19 03:32:28;;;;;;;;;;;18.60;74.20;;;;;;5097599;28;19931;-58
2021/11/19 03:34:55;;;;;;;;;;;18.60;74.20;;;;;;5097297;28;19924;-59
2021/11/19 03:37:21;;;;;;;;;;;18.60;74.20;;;;;;5097176;28;19969;-60
2021/11/19 03:39:48;;;;;;;;;;;18.60;74.20;;;;;;5096438;28;19966;-60
2021/11/19 03:42:17;;;;;;;;;;;18.60;74.20;;;;;;5097668;28;19924;-57
2021/11/19 03:44:49;;;;;;;;;;;18.60;74.20;;;;;;5097383;28;19978;-54
2021/11/19 03:47:20;;;;;;;;;;;18.60;74.20;;;;;;5079433;28;19924;-58
2021/11/19 03:49:48;;;;;;;;;;;18.60;74.20;;;;;;5097008;28;20429;-59
2021/11/19 03:52:18;;;;;;;;;;;18.60;74.20;;;;;;5096942;28;19927;-60
2021/11/19 03:54:46;;;;;;;;;;;18.60;74.20;;;;;;5096057;28;20341;-59
2021/11/19 03:57:14;;;;;;;;;;;18.60;74.20;;;;;;5096683;28;20300;-61
2021/11/19 03:59:42;;;;;;;;;;;18.60;74.20;;;;;;5097017;28;19924;-59
2021/11/19 04:02:10;;;;;;;;;;;18.60;74.10;;;;;;5096731;28;19983;-59
2021/11/19 04:04:38;;;;;;;;;;;18.60;74.10;;;;;;5096972;28;19930;-57
2021/11/19 04:07:05;;;;;;;;;;;18.60;74.20;;;;;;5096970;28;20344;-59
2021/11/19 04:09:33;;;;;;;;;;;18.60;74.20;;;;;;5095868;28;19924;-59
2021/11/19 04:12:00;;;;;;;;;;;18.60;74.10;;;;;;5096471;28;19928;-60
2021/11/19 04:14:28;;;;;;;;;;;18.60;74.40;;;;;;5096529;28;19935;-60
2021/11/19 04:16:56;;;;;;;;;;;18.60;74.10;;;;;;5096469;28;19924;-58
2021/11/19 04:19:25;;;;;;;;;;;18.60;74.10;;;;;;5096461;28;19924;-58
2021/11/19 04:21:53;;;;;;;;;;;18.60;74.10;;;;;;5096536;28;19977;-60
2021/11/19 04:24:22;;;;;;;;;;;18.60;74.20;;;;;;5095212;28;19970;-55
2021/11/19 04:26:49;;;;;;;;;;;18.60;74.10;;;;;;5096157;28;19924;-61
2021/11/19 04:29:28;;;;;;;;;;;18.60;74.10;;;;;;5096581;28;19928;-60
2021/11/19 04:31:55;;;;;;;;;;;18.60;74.10;;;;;;5096755;28;19924;-60
2021/11/19 04:34:23;;;;;;;;;;;18.60;74.10;;;;;;5096440;28;19924;-60
2021/11/19 04:36:50;;;;;;;;;;;18.60;74.10;;;;;;5096413;28;19928;-55
2021/11/19 04:39:17;;;;;;;;;;;18.60;74.10;;;;;;5095220;28;20330;-59
2021/11/19 04:41:45;;;;;;;;;;;18.60;74.10;;;;;;5095923;28;19924;-60
2021/11/19 04:44:12;;;;;;;;;;;18.60;74.10;;;;;;5096813;28;19924;-57
2021/11/19 04:46:40;;;;;;;;;;;18.60;74.10;;;;;;5095880;28;20504;-55
2021/11/19 04:49:08;;;;;;;;;;;18.60;74.10;;;;;;5095854;28;19924;-60
2021/11/19 04:51:36;;;;;;;;;;;18.60;74.10;;;;;;5095770;28;20371;-60
2021/11/19 04:54:04;;;;;;;;;;;18.60;74.10;;;;;;5095585;28;20403;-59
2021/11/19 04:56:31;;;;;;;;;;;18.60;74.00;;;;;;5095007;28;20389;-57
2021/11/19 04:58:58;;;;;;;;;;;18.60;74.10;;;;;;5078069;28;19928;-59
2021/11/19 05:01:27;;;;;;;;;;;18.60;74.10;;;;;;5095528;28;20425;-59
2021/11/19 05:03:54;;;;;;;;;;;18.60;74.10;;;;;;5095537;28;19953;-59
2021/11/19 05:06:21;;;;;;;;;;;18.60;74.00;;;;;;5081565;28;20387;-59
2021/11/19 05:08:49;;;;;;;;;;;18.60;74.00;;;;;;5075184;28;19990;-59
2021/11/19 05:11:20;;;;;;;;;;;18.60;74.00;;;;;;5091094;28;19978;-53
2021/11/19 05:13:47;;;;;;;;;;;18.60;74.00;;;;;;5095690;28;19977;-60
2021/11/19 05:16:15;;;;;;;;;;;18.60;74.00;;;;;;5095308;28;20452;-56
2021/11/19 05:18:42;;;;;;;;;;;18.60;74.00;;;;;;5095264;28;20387;-59
2021/11/19 05:21:10;;;;;;;;;;;18.60;74.00;;;;;;5095456;28;19924;-58
2021/11/19 05:23:38;;;;;;;;;;;18.60;74.00;;;;;;5094760;28;19951;-59
2021/11/19 05:26:05;;;;;;;;;;;18.60;74.00;;;;;;5094320;28;19928;-55
2021/11/19 05:28:33;;;;;;;;;;;18.60;74.00;;;;;;5094968;28;19931;-60
2021/11/19 05:31:00;;;;;;;;;;;18.60;74.00;;;;;;5095042;28;19937;-59
2021/11/19 05:33:28;;;;;;;;;;;18.60;73.90;;;;;;5095307;28;20291;-58
2021/11/19 05:35:55;;;;;;;;;;;18.60;73.90;;;;;;5094941;28;19924;-60
2021/11/19 05:38:24;;;;;;;;;;;18.60;73.90;;;;;;5077293;28;19963;-58
2021/11/19 05:40:51;;;;;;;;;;;18.60;73.90;;;;;;5093635;28;20023;-58
2021/11/19 05:43:21;;;;;;;;;;;18.60;73.90;;;;;;5096274;28;19947;-58
2021/11/19 05:45:48;;;;;;;;;;;18.60;73.90;;;;;;5076826;28;19978;-58
2021/11/19 05:48:16;;;;;;;;;;;18.60;73.90;;;;;;5095034;28;19928;-59
2021/11/19 05:50:44;;;;;;;;;;;18.60;73.90;;;;;;5094966;28;19924;-59
2021/11/19 05:53:11;;;;;;;;;;;18.60;73.90;;;;;;5094460;28;19924;-59
2021/11/19 05:55:40;;;;;;;;;;;18.60;73.90;;;;;;5093701;28;20352;-54
2021/11/19 05:58:07;;;;;;;;;;;18.60;73.80;;;;;;5094445;28;20364;-58
2021/11/19 06:00:38;;;;;;;;;;;18.60;73.90;;;;;;5094688;28;19972;-59
2021/11/19 06:03:05;;;;;;;;;;;18.60;73.90;;;;;;5094779;28;19999;-59
2021/11/19 06:05:33;;;;;;;;;;;18.60;73.90;;;;;;5094423;28;20403;-56
2021/11/19 06:08:00;;;;;;;;;;;18.60;73.90;;;;;;5094631;28;20070;-56
2021/11/19 06:10:29;;;;;;;;;;;18.60;73.90;;;;;;5093374;28;19931;-56
2021/11/19 06:13:03;;;;;;;;;;;18.60;73.80;;;;;;5094232;28;19924;-59
2021/11/19 06:15:32;;;;;;;;;;;18.60;73.80;;;;;;5094516;28;19924;-60
2021/11/19 06:18:02;;;;;;;;;;;18.60;73.80;;;;;;5094218;28;19928;-60
2021/11/19 06:20:31;;;;;;;;;;;18.60;73.80;;;;;;5094054;28;19924;-60
2021/11/19 06:23:01;;;;;;;;;;;18.60;73.80;;;;;;5094219;28;19932;-61
2021/11/19 06:25:30;;;;;;;;;;;18.60;73.70;;;;;;5093027;28;19932;-57
2021/11/19 06:28:01;;;;;;;;;;;18.60;73.80;;;;;;5076428;28;19924;-60
2021/11/19 06:30:29;;;;;;;;;;;18.60;73.80;;;;;;5076895;28;19951;-59
2021/11/19 06:32:55;;;;;;;;;;;18.60;73.80;;;;;;5076097;28;19924;-60
2021/11/19 06:35:23;;;;;;;;;;;18.60;73.80;;;;;;5094090;28;19935;-60
2021/11/19 06:37:50;;;;;;;;;;;18.60;73.80;;;;;;5094445;28;19981;-60
2021/11/19 06:40:19;;;;;;;;;;;18.60;73.80;;;;;;5093331;28;19939;-59
2021/11/19 06:42:46;;;;;;;;;;;18.60;73.80;;;;;;5093676;28;19924;-60
2021/11/19 06:45:15;;;;;;;;;;;18.60;73.80;;;;;;5093822;28;19972;-60
2021/11/19 06:47:42;;;;;;;;;;;18.60;73.80;;;;;;5094923;28;19924;-59
2021/11/19 06:50:11;;;;;;;;;;;18.60;73.70;;;;;;5093838;28;19927;-58
2021/11/19 06:52:38;;;;;;;;;;;18.60;73.80;;;;;;5093626;28;20430;-58
2021/11/19 06:55:06;;;;;;;;;;;18.60;73.70;;;;;;5094881;28;19924;-60
2021/11/19 06:57:34;;;;;;;;;;;18.60;73.70;;;;;;5092255;28;19924;-60
2021/11/19 07:00:01;;;;;;;;;;;18.60;73.70;;;;;;5093625;28;19924;-60
2021/11/19 07:02:28;;;;;;;;;;;18.60;73.70;;;;;;5093566;28;19935;-59
2021/11/19 07:04:55;;;;;;;;;;;18.60;73.70;;;;;;5094253;28;19924;-58
2021/11/19 07:07:22;;;;;;;;;;;18.60;73.70;;;;;;5093970;28;19924;-57
2021/11/19 07:09:50;;;;;;;;;;;18.60;73.60;;;;;;5093829;28;19978;-58
2021/11/19 07:12:17;;;;;;;;;;;18.60;73.60;;;;;;5092548;28;20302;-60
2021/11/19 07:14:45;;;;;;;;;;;18.60;73.60;;;;;;5093811;28;19962;-58
2021/11/19 07:17:12;;;;;;;;;;;18.60;73.60;;;;;;5088416;28;20011;-59
2021/11/19 07:19:40;;;;;;;;;;;18.60;73.50;;;;;;5056894;28;19924;-60
2021/11/19 07:22:08;;;;;;;;;;;18.70;73.60;;;;;;5073039;28;19951;-56
2021/11/19 07:24:37;;;;;;;;;;;18.70;73.50;;;;;;5055348;28;19924;-56
2021/11/19 07:27:08;;;;;;;;;;;18.70;73.50;;;;;;5083499;28;20343;-57
2021/11/19 07:29:45;;;;;;;;;;;18.70;73.40;;;;;;5091417;28;19924;-59
2021/11/19 07:32:12;;;;;;;;;;;18.70;73.40;;;;;;5075682;28;19932;-59
2021/11/19 07:34:39;;;;;;;;;;;18.70;73.30;;;;;;5073462;28;20288;-60
2021/11/19 07:37:06;;;;;;;;;;;18.70;73.20;;;;;;5073353;28;20311;-60
2021/11/19 07:39:33;;;;;;;;;;;18.70;73.20;;;;;;5073079;28;19973;-56
2021/11/19 07:42:00;;;;;;;;;;;18.70;73.20;;;;;;5080814;28;20383;-60
2021/11/19 07:44:28;;;;;;;;;;;18.70;73.20;;;;;;5093245;28;20012;-59
2021/11/19 07:46:55;;;;;;;;;;;18.70;73.20;;;;;;5094001;28;19924;-58
2021/11/19 07:49:22;;;;;;;;;;;18.70;73.20;;;;;;5096988;28;19924;-57
2021/11/19 07:51:51;;;;;;;;;;;18.70;73.10;;;;;;5097181;28;19928;-58
2021/11/19 07:54:19;;;;;;;;;;;18.80;73.20;;;;;;5096834;28;19928;-57
2021/11/19 07:56:46;;;;;;;;;;;18.70;73.10;;;;;;5095493;28;19970;-60
2021/11/19 07:59:20;;;;;;;;;;;18.70;73.10;;;;;;5096763;28;19969;-60
2021/11/19 08:01:47;;;;;;;;;;;18.70;73.10;;;;;;5096738;28;19975;-60
2021/11/19 08:04:15;;;;;;;;;;;18.80;73.20;;;;;;5097030;28;19969;-61
2021/11/19 08:06:43;;;;;;;;;;;18.80;73.20;;;;;;5097280;28;19957;-58
2021/11/19 08:09:10;;;;;;;;;;;18.80;73.20;;;;;;5096917;28;19974;-59
2021/11/19 08:11:37;;;;;;;;;;;18.70;73.80;;;;;;5095406;28;19939;-58
2021/11/19 08:14:04;;;;;;;;;;;18.80;73.20;;;;;;5096793;28;19931;-56
2021/11/19 08:16:35;;;;;;;;;;;18.80;73.20;;;;;;5096425;28;19970;-59
2021/11/19 08:19:03;;;;;;;;;;;18.80;73.10;;;;;;5096419;28;19975;-55
2021/11/19 08:21:30;;;;;;;;;;;18.80;73.10;;;;;;5096252;28;19931;-56
2021/11/19 08:23:59;;;;;;;;;;;18.80;73.10;;;;;;5096358;28;19924;-59
2021/11/19 08:26:29;;;;;;;;;;;18.80;73.10;;;;;;5095861;28;19974;-57
2021/11/19 08:28:57;;;;;;;;;;;18.80;73.10;;;;;;5095415;28;20284;-53
2021/11/19 08:31:24;;;;;;;;;;;18.80;73.10;;;;;;5096341;28;19978;-58
2021/11/19 08:33:53;;;;;;;;;;;18.80;73.10;;;;;;5096336;28;19924;-58
2021/11/19 08:36:21;;;;;;;;;;;18.80;73.10;;;;;;5096288;28;19924;-59
2021/11/19 08:38:47;;;;;;;;;;;18.80;73.10;;;;;;5096188;28;19928;-60
2021/11/19 08:41:15;;;;;;;;;;;18.80;73.10;;;;;;5095870;28;19930;-59
2021/11/19 08:43:45;;;;;;;;;;;18.80;73.00;;;;;;5094653;28;19924;-59
2021/11/19 08:46:14;;;;;;;;;;;18.80;73.00;;;;;;5096027;28;20217;-57
2021/11/19 08:48:45;;;;;;;;;;;18.80;73.00;;;;;;5095784;28;19931;-58
2021/11/19 08:51:15;;;;;;;;;;;18.80;73.00;;;;;;5095755;28;19924;-59
2021/11/19 08:53:43;;;;;;;;;;;18.80;73.00;;;;;;5095451;28;19970;-59
2021/11/19 08:56:10;;;;;;;;;;;18.90;73.00;;;;;;5077767;28;19965;-58
2021/11/19 08:58:38;;;;;;;;;;;18.80;73.00;;;;;;5093438;28;19931;-57
2021/11/19 09:01:06;;;;;;;;;;;18.90;73.00;;;;;;5095554;28;19924;-57
2021/11/19 09:03:34;;;;;;;;;;;18.80;72.90;;;;;;5096300;28;20014;-58
2021/11/19 09:06:02;;;;;;;;;;;18.80;72.90;;;;;;5095734;28;19924;-58
2021/11/19 09:08:30;;;;;;;;;;;18.80;72.90;;;;;;5095649;28;19928;-59
2021/11/19 09:10:57;;;;;;;;;;;18.90;73.00;;;;;;5095342;28;19924;-58
2021/11/19 09:13:25;;;;;;;;;;;18.90;72.90;;;;;;5094469;28;19931;-60
2021/11/19 09:15:54;;;;;;;;;;;18.90;72.90;;;;;;5095417;28;20345;-59
2021/11/19 09:18:32;;;;;;;;;;;18.90;72.80;;;;;;5095119;28;20391;-56
2021/11/19 09:21:02;;;;;;;;;;;18.90;72.80;;;;;;5077200;28;19928;-58
2021/11/19 09:23:31;;;;;;;;;;;18.90;72.80;;;;;;5077057;28;19928;-59
2021/11/19 09:26:03;;;;;;;;;;;18.90;72.70;;;;;;5077095;28;19924;-60
2021/11/19 09:28:35;;;;;;;;;;;18.90;72.70;;;;;;5094220;28;19967;-55
2021/11/19 09:31:05;;;;;;;;;;;18.90;72.60;;;;;;5094886;28;20022;-57
2021/11/19 09:33:34;;;;;;;;;;;19.00;72.70;;;;;;5095119;28;20007;-54
2021/11/19 09:36:02;;;;;;;;;;;19.00;72.60;;;;;;5095130;28;20359;-59
2021/11/19 09:38:29;;;;;;;;;;;19.00;72.60;;;;;;5095092;28;20303;-56
2021/11/19 09:41:05;;;;;;;;;;;19.00;72.50;;;;;;5094495;28;19928;-58
2021/11/19 09:43:55;;;;;;;;;;;19.00;72.50;;;;;;5093964;28;20329;-57
2021/11/19 09:46:34;;;;;;;;;;;19.00;72.40;;;;;;5032655;28;20387;-54
2021/11/19 09:49:06;;;;;;;;;;;19.00;72.40;;;;;;5033328;28;19963;-57
2021/11/19 09:51:36;;;;;;;;;;;19.00;72.30;;;;;;5032600;28;19932;-59
2021/11/19 09:54:39;;;;;;;;;;;19.00;72.30;;;;;;5032214;28;19929;-55
2021/11/19 09:57:15;;;;;;;;;;;19.10;72.40;;;;;;4992874;28;19972;-57
2021/11/19 09:59:50;;;;;;;;;;;19.10;72.30;;;;;;4991879;28;20282;-58
2021/11/19 10:02:40;;;;;;;;;;;19.10;72.30;;;;;;4992889;28;19933;-59
2021/11/19 10:05:07;;;;;;;;;;;19.10;72.20;;;;;;4993205;28;19925;-59
2021/11/19 10:07:52;;;;;;;;;;;19.10;72.20;;;;;;4992794;28;19926;-60
2021/11/19 10:10:25;;;;;;;;;;;19.10;72.20;;;;;;4992644;28;19973;-59
2021/11/19 10:13:04;;;;;;;;;;;19.10;72.10;;;;;;4992087;28;19926;-59
2021/11/19 10:15:46;;;;;;;;;;;19.10;72.10;;;;;;4992678;28;19926;-58
2021/11/19 10:18:18;;;;;;;;;;;19.10;72.10;;;;;;4992902;28;20293;-59
2021/11/19 10:20:45;;;;;;;;;;;19.10;72.00;;;;;;4992596;28;19965;-58
2021/11/19 10:23:21;;;;;;;;;;;19.10;72.00;;;;;;5009091;28;19929;-59
2021/11/19 10:25:54;;;;;;;;;;;19.20;72.10;;;;;;5032194;28;20309;-57
2021/11/19 10:28:34;;;;;;;;;;;19.20;72.10;;;;;;5030825;28;19964;-60
2021/11/19 10:31:01;;;;;;;;;;;19.20;72.00;;;;;;5060156;28;19928;-59
2021/11/19 10:33:30;;;;;;;;;;;19.20;72.00;;;;;;5094498;28;19924;-59
2021/11/19 10:35:57;;;;;;;;;;;19.20;72.00;;;;;;5093838;28;19925;-58
2021/11/19 10:38:43;;;;;;;;;;;19.20;71.90;;;;;;5076041;28;20346;-60
2021/11/19 10:41:45;;;;;;;;;;;19.20;71.90;;;;;;5093781;28;19924;-56
2021/11/19 10:44:24;;;;;;;;;;;19.20;71.90;;;;;;5093116;28;19931;-60
2021/11/19 10:46:57;;;;;;;;;;;19.20;71.90;;;;;;5093822;28;19971;-58
2021/11/19 10:49:24;;;;;;;;;;;19.20;71.80;;;;;;5093805;28;19924;-59
2021/11/19 10:52:10;;;;;;;;;;;19.20;71.90;;;;;;5093825;28;19969;-59
2021/11/19 10:54:55;;;;;;;;;;;19.20;71.90;;;;;;5093897;28;19924;-58
2021/11/19 10:57:58;;;;;;;;;;;19.20;71.90;;;;;;5093493;28;20018;-59
2021/11/19 11:00:32;;;;;;;;;;;19.20;71.90;;;;;;5030799;28;19933;-60
2021/11/19 11:03:06;;;;;;;;;;;19.20;72.00;;;;;;5031639;28;20143;-60
2021/11/19 11:05:35;;;;;;;;;;;19.20;71.90;;;;;;5015129;28;19925;-58
2021/11/19 11:08:05;;;;;;;;;;;19.20;71.90;;;;;;5031526;28;19931;-58
2021/11/19 11:10:34;;;;;;;;;;;19.20;71.90;;;;;;5031486;28;20328;-59
2021/11/19 11:13:01;;;;;;;;;;;19.30;72.00;;;;;;5031443;28;19964;-58
2021/11/19 11:15:31;;;;;;;;;;;19.20;71.80;;;;;;5030260;28;19925;-59
2021/11/19 11:18:10;;;;;;;;;;;19.20;71.80;;;;;;5014892;28;19925;-59
2021/11/19 11:20:39;;;;;;;;;;;19.20;71.80;;;;;;5031387;28;19925;-60
2021/11/19 11:23:22;;;;;;;;;;;19.20;71.80;;;;;;5033478;28;19925;-57
2021/11/19 11:26:06;;;;;;;;;;;19.20;71.70;;;;;;5035165;28;20373;-56
2021/11/19 11:28:51;;;;;;;;;;;19.20;71.70;;;;;;5034339;28;19933;-60
2021/11/19 11:31:18;;;;;;;;;;;19.20;71.70;;;;;;5035184;28;20007;-57
2021/11/19 11:33:54;;;;;;;;;;;19.20;71.70;;;;;;5048576;28;19924;-59
2021/11/19 11:36:27;;;;;;;;;;;19.30;71.90;;;;;;5097331;28;19924;-60
2021/11/19 11:39:09;;;;;;;;;;;19.20;71.70;;;;;;5097249;28;19970;-59
2021/11/19 11:41:48;;;;;;;;;;;19.20;71.70;;;;;;5097130;28;19924;-60
2021/11/19 11:44:20;;;;;;;;;;;19.20;71.70;;;;;;5096342;28;19930;-53
2021/11/19 11:46:47;;;;;;;;;;;19.20;71.70;;;;;;5097155;28;19931;-58
2021/11/19 11:49:22;;;;;;;;;;;19.20;71.70;;;;;;5097044;28;19924;-60
2021/11/19 11:51:58;;;;;;;;;;;19.20;71.70;;;;;;5097026;28;19924;-58
2021/11/19 11:54:25;;;;;;;;;;;19.30;71.90;;;;;;5096823;28;20011;-59
2021/11/19 11:57:11;;;;;;;;;;;19.20;71.70;;;;;;5096727;28;19968;-59
2021/11/19 11:59:47;;;;;;;;;;;19.30;71.90;;;;;;5096089;28;19928;-60
2021/11/19 12:02:33;;;;;;;;;;;19.20;71.80;;;;;;5097026;28;19924;-60
2021/11/19 12:05:22;;;;;;;;;;;19.20;71.70;;;;;;5097105;28;19935;-60
2021/11/19 12:07:58;;;;;;;;;;;19.20;71.70;;;;;;5097049;28;19925;-58
2021/11/19 12:10:43;;;;;;;;;;;19.20;71.70;;;;;;5096961;28;19924;-59
2021/11/19 12:13:17;;;;;;;;;;;19.20;71.70;;;;;;5096806;28;20291;-59
2021/11/19 12:16:04;;;;;;;;;;;19.20;71.80;;;;;;5095901;28;20009;-54
2021/11/19 12:18:46;;;;;;;;;;;19.30;71.90;;;;;;5085881;28;19953;-59
2021/11/19 12:21:53;;;;;;;;;;;19.30;71.90;;;;;;5096487;28;19924;-59
2021/11/19 12:24:26;;;;;;;;;;;19.20;71.80;;;;;;5033948;28;19987;-61
2021/11/19 12:26:57;;;;;;;;;;;19.20;71.80;;;;;;5034137;28;19925;-60
2021/11/19 12:29:44;;;;;;;;;;;19.30;71.90;;;;;;5033015;28;19947;-60
2021/11/19 12:32:16;;;;;;;;;;;19.20;71.70;;;;;;5017847;28;19932;-59
2021/11/19 12:35:08;;;;;;;;;;;19.20;71.70;;;;;;5033659;28;19972;-59
2021/11/19 12:37:37;;;;;;;;;;;19.30;71.90;;;;;;5029227;28;19925;-55
2021/11/19 12:40:16;;;;;;;;;;;19.30;71.90;;;;;;5034279;28;19929;-59
2021/11/19 12:42:48;;;;;;;;;;;19.30;71.90;;;;;;5033745;28;19926;-59
2021/11/19 12:45:15;;;;;;;;;;;19.20;71.70;;;;;;5016252;28;20467;-60
2021/11/19 12:47:57;;;;;;;;;;;19.30;71.90;;;;;;5033962;28;19932;-53
2021/11/19 12:50:28;;;;;;;;;;;19.20;71.80;;;;;;5033629;28;19925;-56
2021/11/19 12:52:55;;;;;;;;;;;19.20;71.80;;;;;;5033519;28;19929;-58
2021/11/19 12:55:28;;;;;;;;;;;19.30;71.90;;;;;;5033567;28;20273;-58
2021/11/19 12:58:15;;;;;;;;;;;19.20;71.80;;;;;;5052714;28;19924;-59
2021/11/19 13:01:00;;;;;;;;;;;19.20;71.80;;;;;;5094969;28;20357;-58
2021/11/19 13:04:06;;;;;;;;;;;19.20;71.80;;;;;;5095475;28;19970;-59
2021/11/19 13:06:33;;;;;;;;;;;19.20;71.90;;;;;;5033343;28;19925;-58
2021/11/19 13:09:20;;;;;;;;;;;19.20;71.80;;;;;;5033536;28;19936;-59
2021/11/19 13:12:08;;;;;;;;;;;19.30;72.00;;;;;;5033535;28;19925;-59
2021/11/19 13:14:37;;;;;;;;;;;19.20;71.80;;;;;;5032641;28;19925;-58
2021/11/19 13:17:14;;;;;;;;;;;19.20;71.80;;;;;;5016444;28;20026;-59
2021/11/19 13:19:41;;;;;;;;;;;19.20;71.90;;;;;;5033058;28;19931;-58
2021/11/19 13:22:11;;;;;;;;;;;19.20;71.90;;;;;;5032981;28;19925;-56
2021/11/19 13:24:45;;;;;;;;;;;19.20;71.90;;;;;;5032881;28;19925;-57
2021/11/19 13:27:12;;;;;;;;;;;19.20;71.90;;;;;;5032828;28;19984;-59
2021/11/19 13:29:42;;;;;;;;;;;19.20;71.90;;;;;;5032960;28;19925;-58
2021/11/19 13:32:24;;;;;;;;;;;19.20;72.00;;;;;;5031849;28;19925;-58
2021/11/19 13:34:57;;;;;;;;;;;19.20;72.00;;;;;;5032877;28;19925;-60
2021/11/19 13:37:42;;;;;;;;;;;19.20;72.10;;;;;;5065533;28;19924;-60
2021/11/19 13:40:28;;;;;;;;;;;19.20;72.10;;;;;;5095212;28;19925;-59
2021/11/19 13:43:01;;;;;;;;;;;19.20;72.10;;;;;;5095209;28;19928;-58
2021/11/19 13:45:42;;;;;;;;;;;19.20;72.10;;;;;;5093560;28;19928;-60
2021/11/19 13:48:47;;;;;;;;;;;19.20;72.20;;;;;;5094725;28;19960;-59
2021/11/19 13:51:27;;;;;;;;;;;19.20;72.10;;;;;;5094942;28;19924;-58
2021/11/19 13:53:57;;;;;;;;;;;19.20;72.10;;;;;;5094524;28;19924;-59
2021/11/19 13:56:27;;;;;;;;;;;19.20;72.10;;;;;;5094339;28;20379;-60
2021/11/19 13:58:58;;;;;;;;;;;19.20;72.20;;;;;;5094458;28;19973;-57
2021/11/19 14:01:41;;;;;;;;;;;19.20;72.10;;;;;;5093473;28;19970;-59
2021/11/19 14:04:14;;;;;;;;;;;19.20;72.10;;;;;;5094684;28;19924;-60
2021/11/19 14:06:53;;;;;;;;;;;19.20;72.20;;;;;;5094463;28;19928;-60
2021/11/19 14:09:20;;;;;;;;;;;19.20;72.20;;;;;;5094693;28;20307;-59
2021/11/19 14:12:00;;;;;;;;;;;19.20;72.20;;;;;;5094354;28;20391;-51
2021/11/19 14:14:35;;;;;;;;;;;19.20;72.20;;;;;;5076524;28;19924;-59
2021/11/19 14:17:04;;;;;;;;;;;19.10;72.20;;;;;;5075259;28;19924;-58
2021/11/19 14:22:20;;;;;;;;;;;19.10;72.30;;;;;;5094130;28;19954;-57
2021/11/19 14:25:06;;;;;;;;;;;19.10;73.00;;;;;;5094527;28;19924;-58
2021/11/19 14:27:36;;;;;;;;;;;19.10;72.40;;;;;;5093953;28;19931;-58
2021/11/19 14:30:18;;;;;;;;;;;19.10;72.40;;;;;;5094028;28;19924;-55
2021/11/19 14:32:48;;;;;;;;;;;19.10;72.40;;;;;;5093370;28;19925;-60
2021/11/19 14:35:42;;;;;;;;;;;19.10;72.50;;;;;;5094352;28;19927;-60
2021/11/19 14:38:12;;;;;;;;;;;19.10;72.50;;;;;;5094561;28;19965;-56
2021/11/19 14:40:51;;;;;;;;;;;19.10;72.50;;;;;;5094269;28;20272;-58
2021/11/19 14:43:20;;;;;;;;;;;19.10;72.50;;;;;;5075928;28;19924;-60